Time;durP1;ratioP1;P1;durP2;ratioP2;P2;SDS_P1;SDS_P2;PMS_P1;PMS_P2;Temp;Humidity;BMP_temperature;BMP_pressure;BME280_temperature;BME280_humidity;BME280_pressure;Samples;Min_cycle;Max_cycle;Signal;HPM_P1;HPM_P2
2022/05/02 00:02:29;;;;;;;59.35;34.80;;;6.30;99.90;;;;;;5014139;28;20069;-85
2022/05/02 00:05:17;;;;;;;58.10;35.08;;;6.40;99.90;;;;;;5012791;28;20100;-84
2022/05/02 00:08:05;;;;;;;52.55;34.58;;;6.30;99.90;;;;;;5004055;28;20472;-85
2022/05/02 00:10:54;;;;;;;55.13;34.50;;;6.20;99.90;;;;;;5013264;28;20332;-85
2022/05/02 00:13:44;;;;;;;44.67;27.17;;;6.10;99.90;;;;;;5009180;28;20081;-85
2022/05/02 00:16:34;;;;;;;55.83;35.13;;;6.20;99.90;;;;;;4992163;28;20061;-85
2022/05/02 00:19:22;;;;;;;63.53;37.83;;;6.20;99.90;;;;;;5004566;28;20049;-86
2022/05/02 00:22:12;;;;;;;56.63;35.85;;;6.20;99.90;;;;;;5001030;28;20571;-86
2022/05/02 00:24:59;;;;;;;56.42;35.42;;;6.00;99.90;;;;;;5001220;28;20049;-85
2022/05/02 00:27:51;;;;;;;51.55;34.00;;;5.90;99.90;;;;;;5007557;28;20045;-85
2022/05/02 00:30:39;;;;;;;53.35;33.95;;;5.80;99.90;;;;;;5005181;28;20046;-86
2022/05/02 00:33:26;;;;;;;64.88;37.63;;;5.70;99.90;;;;;;5013344;28;20049;-85
2022/05/02 00:36:13;;;;;;;62.20;36.58;;;5.80;99.90;;;;;;5013744;28;20042;-84
2022/05/02 00:39:00;;;;;;;57.40;36.20;;;5.70;99.90;;;;;;5002238;28;20116;-86
2022/05/02 00:41:48;;;;;;;57.92;35.75;;;5.70;99.90;;;;;;5008147;28;20131;-84
2022/05/02 00:44:40;;;;;;;61.70;38.35;;;5.60;99.90;;;;;;4998864;28;20053;-85
2022/05/02 00:47:33;;;;;;;65.37;39.40;;;5.60;99.90;;;;;;5008805;28;20444;-84
2022/05/02 00:50:39;;;;;;;69.10;39.83;;;5.70;99.90;;;;;;5002761;28;20054;-85
2022/05/02 00:53:29;;;;;;;67.00;41.28;;;5.70;99.90;;;;;;5010121;28;20049;-84
2022/05/02 00:56:23;;;;;;;61.45;38.28;;;5.70;99.90;;;;;;4999221;28;20136;-83
2022/05/02 00:59:13;;;;;;;61.90;38.28;;;5.70;99.90;;;;;;4993720;28;20290;-84
2022/05/02 01:02:00;;;;;;;75.80;41.67;;;5.60;99.90;;;;;;4994949;28;20069;-83
2022/05/02 01:04:47;;;;;;;75.13;42.88;;;5.70;99.90;;;;;;5012153;28;20082;-85
2022/05/02 01:07:35;;;;;;;70.80;40.70;;;5.80;99.90;;;;;;5007656;28;20095;-84
2022/05/02 01:10:26;;;;;;;65.72;39.25;;;5.90;99.90;;;;;;5010653;28;20045;-85
2022/05/02 01:13:40;;;;;;;72.60;42.22;;;5.80;99.90;;;;;;5020490;28;20049;-85
2022/05/02 01:16:28;;;;;;;72.18;41.55;;;5.80;99.90;;;;;;5002483;28;20468;-85
2022/05/02 01:19:18;;;;;;;73.63;41.40;;;5.60;99.90;;;;;;5013435;28;20053;-85
2022/05/02 01:22:08;;;;;;;75.78;44.47;;;5.60;99.90;;;;;;5011899;28;20060;-85
2022/05/02 01:24:56;;;;;;;71.22;42.28;;;5.70;99.90;;;;;;4998402;28;20185;-83
2022/05/02 01:27:43;;;;;;;76.38;43.53;;;5.70;99.90;;;;;;5011559;28;20048;-85
2022/05/02 01:30:35;;;;;;;76.40;42.78;;;5.70;99.90;;;;;;5011096;28;20077;-85
2022/05/02 01:33:24;;;;;;;86.13;46.05;;;5.60;99.90;;;;;;4999439;28;20045;-84
2022/05/02 01:36:14;;;;;;;81.18;45.45;;;5.60;99.90;;;;;;5002424;28;20104;-84
2022/05/02 01:39:01;;;;;;;86.53;46.15;;;5.60;99.90;;;;;;5008755;28;20153;-84
2022/05/02 01:41:51;;;;;;;88.70;45.95;;;5.50;99.90;;;;;;5005295;28;20057;-85
2022/05/02 01:44:39;;;;;;;91.03;46.92;;;5.40;99.90;;;;;;4997190;28;20372;-85
2022/05/02 01:47:29;;;;;;;86.10;46.50;;;5.40;99.90;;;;;;4995251;28;20042;-85
2022/05/02 01:50:16;;;;;;;85.13;47.40;;;5.40;99.90;;;;;;4998041;28;20065;-85
2022/05/02 01:53:03;;;;;;;89.88;50.25;;;5.30;99.90;;;;;;5013032;28;20111;-85
2022/05/02 01:55:51;;;;;;;108.78;52.85;;;5.40;99.90;;;;;;5013881;28;20127;-85
2022/05/02 01:58:38;;;;;;;98.55;51.70;;;5.50;99.90;;;;;;5006221;28;20058;-85
2022/05/02 02:01:26;;;;;;;104.15;53.92;;;5.60;99.90;;;;;;4990841;28;20058;-85
2022/05/02 02:07:19;;;;;;;106.97;54.47;;;5.60;99.90;;;;;;5011775;28;20478;-85
2022/05/02 02:10:09;;;;;;;110.95;55.58;;;5.60;99.90;;;;;;5014829;28;20112;-83
2022/05/02 02:12:56;;;;;;;105.78;53.63;;;5.60;99.90;;;;;;4997666;28;20057;-86
2022/05/02 02:15:44;;;;;;;96.70;52.13;;;5.60;99.90;;;;;;4999498;28;20068;-84
2022/05/02 02:18:31;;;;;;;97.22;51.55;;;5.60;99.90;;;;;;5006796;28;20046;-85
2022/05/02 02:21:18;;;;;;;98.80;51.45;;;5.50;99.90;;;;;;5003929;28;20060;-86
2022/05/02 02:24:05;;;;;;;98.18;50.45;;;5.40;99.90;;;;;;5000913;28;20190;-85
2022/05/02 02:26:56;;;;;;;96.43;48.10;;;5.30;99.90;;;;;;4996369;28;20054;-85
2022/05/02 02:29:43;;;;;;;98.30;50.30;;;5.30;99.90;;;;;;5011403;28;20045;-85
2022/05/02 02:32:32;;;;;;;98.40;49.85;;;5.30;99.90;;;;;;4997761;28;20414;-85
2022/05/02 02:35:20;;;;;;;94.30;46.72;;;5.30;99.90;;;;;;5002715;28;20058;-86
2022/05/02 02:38:12;;;;;;;95.45;47.17;;;5.30;99.90;;;;;;5011411;28;20057;-86
2022/05/02 02:41:01;;;;;;;85.00;45.80;;;5.30;99.90;;;;;;5012212;28;21575;-86
2022/05/02 02:43:49;;;;;;;91.60;46.95;;;5.20;99.90;;;;;;5013028;28;20284;-86
2022/05/02 02:46:36;;;;;;;80.25;43.97;;;5.10;99.90;;;;;;5011181;28;20048;-85
2022/05/02 02:49:23;;;;;;;87.00;45.47;;;5.10;99.90;;;;;;5013424;28;20046;-85
2022/05/02 02:52:12;;;;;;;88.85;47.17;;;5.00;99.90;;;;;;5006325;28;20131;-85
2022/05/02 02:55:02;;;;;;;102.43;50.67;;;5.00;99.90;;;;;;5013579;28;20054;-84
2022/05/02 02:57:49;;;;;;;97.72;50.97;;;4.90;99.90;;;;;;5015234;28;20475;-85
2022/05/02 03:00:36;;;;;;;85.07;44.33;;;5.00;99.90;;;;;;5009847;28;20078;-85
2022/05/02 03:03:27;;;;;;;80.85;44.05;;;5.00;99.90;;;;;;4996883;28;20052;-85
2022/05/02 03:06:14;;;;;;;80.13;43.13;;;4.90;99.90;;;;;;5000575;28;20042;-85
2022/05/02 03:09:04;;;;;;;84.97;45.40;;;4.80;99.90;;;;;;4996772;28;20062;-85
2022/05/02 03:11:54;;;;;;;82.13;43.72;;;4.80;99.90;;;;;;4996302;28;20110;-85
2022/05/02 03:14:41;;;;;;;85.28;44.95;;;4.80;99.90;;;;;;4988948;28;20078;-85
2022/05/02 03:17:28;;;;;;;91.43;47.22;;;4.70;99.90;;;;;;4999186;28;20045;-85
2022/05/02 03:20:20;;;;;;;91.18;47.28;;;4.70;99.90;;;;;;4997252;28;20139;-86
2022/05/02 03:23:08;;;;;;;103.57;49.05;;;4.70;99.90;;;;;;5007632;28;20487;-87
2022/05/02 03:25:56;;;;;;;113.57;54.65;;;4.60;99.90;;;;;;5008134;28;20084;-86
2022/05/02 03:28:45;;;;;;;109.40;53.88;;;4.50;99.90;;;;;;5011565;28;20046;-86
2022/05/02 03:31:33;;;;;;;105.80;54.13;;;4.50;99.90;;;;;;5001442;28;20041;-85
2022/05/02 03:34:20;;;;;;;95.43;49.33;;;4.60;99.90;;;;;;5010842;28;20045;-87
2022/05/02 03:37:07;;;;;;;100.10;49.65;;;4.60;99.90;;;;;;5009330;28;20093;-85
2022/05/02 03:39:55;;;;;;;92.07;46.05;;;4.70;99.90;;;;;;5016341;28;20135;-84
2022/05/02 03:42:42;;;;;;;89.63;47.28;;;4.70;99.90;;;;;;5014792;28;20096;-86
2022/05/02 03:45:32;;;;;;;102.30;49.70;;;4.60;99.90;;;;;;5015921;28;20082;-85
2022/05/02 03:48:19;;;;;;;106.68;49.22;;;4.50;99.90;;;;;;5016902;28;20325;-87
2022/05/02 03:51:07;;;;;;;95.25;48.45;;;4.60;99.90;;;;;;5015635;28;20082;-87
2022/05/02 03:53:54;;;;;;;92.03;48.08;;;4.60;99.90;;;;;;4995153;28;20715;-87
2022/05/02 03:56:44;;;;;;;99.53;49.45;;;4.50;99.90;;;;;;4999493;28;20046;-87
2022/05/02 03:59:31;;;;;;;98.38;49.13;;;4.50;99.90;;;;;;5016300;28;20121;-87
2022/05/02 04:02:18;;;;;;;105.88;50.00;;;4.50;99.90;;;;;;5011113;28;20138;-86
2022/05/02 04:05:06;;;;;;;102.40;50.70;;;4.60;99.90;;;;;;5015046;28;20089;-84
2022/05/02 04:07:53;;;;;;;103.88;50.45;;;4.50;99.90;;;;;;5015521;28;20053;-85
2022/05/02 04:10:41;;;;;;;108.20;51.05;;;4.40;99.90;;;;;;5016807;28;20100;-84
2022/05/02 04:13:32;;;;;;;99.03;51.22;;;4.50;99.90;;;;;;5015351;28;20376;-86
2022/05/02 04:16:20;;;;;;;119.53;55.50;;;4.60;99.90;;;;;;5015452;28;20335;-83
2022/05/02 04:19:07;;;;;;;111.95;53.70;;;4.50;99.90;;;;;;5004629;28;20065;-85
2022/05/02 04:21:54;;;;;;;114.30;53.45;;;4.60;99.90;;;;;;5012981;28;20173;-86
2022/05/02 04:24:41;;;;;;;103.50;50.85;;;4.50;99.90;;;;;;5001142;28;20127;-86
2022/05/02 04:27:30;;;;;;;108.88;51.17;;;4.50;99.90;;;;;;5011598;28;20092;-87
2022/05/02 04:30:32;;;;;;;108.70;49.33;;;4.50;99.90;;;;;;5003035;28;20052;-87
2022/05/02 04:50:25;;;;;;;101.97;50.72;;;4.70;99.90;;;;;;4948457;29;20024;-87
2022/05/02 05:06:09;;;;;;;108.75;53.53;;;5.20;99.90;;;;;;4901201;29;20040;-85
2022/05/02 05:09:12;;;;;;;111.40;56.75;;;5.30;99.90;;;;;;4920813;29;20072;-86
2022/05/02 05:12:53;;;;;;;109.10;55.75;;;5.50;99.90;;;;;;4919494;28;20040;-84
2022/05/02 05:16:20;;;;;;;112.20;56.75;;;5.60;99.90;;;;;;4926355;29;20480;-85
2022/05/02 05:19:53;;;;;;;115.40;58.22;;;5.70;99.90;;;;;;5004323;28;20281;-84
2022/05/02 05:23:07;;;;;;;77.10;40.37;;;5.90;99.90;;;;;;4990377;28;20053;-85
2022/05/02 05:26:07;;;;;;;112.40;58.92;;;6.10;99.90;;;;;;5006859;28;20402;-86
2022/05/02 05:29:12;;;;;;;103.93;56.28;;;6.40;99.90;;;;;;5002775;28;20048;-84
2022/05/02 05:32:21;;;;;;;108.88;58.35;;;6.60;99.90;;;;;;5011359;28;20057;-85
2022/05/02 05:35:10;;;;;;;91.57;52.40;;;6.80;99.90;;;;;;5014307;28;20329;-85
2022/05/02 05:38:08;;;;;;;92.18;53.72;;;6.80;99.90;;;;;;5009889;28;20045;-80
2022/05/02 05:41:15;;;;;;;82.88;52.13;;;6.80;99.90;;;;;;5009884;28;20057;-85
2022/05/02 05:44:14;;;;;;;77.05;45.22;;;6.90;99.90;;;;;;4995315;28;20056;-85
2022/05/02 05:47:01;;;;;;;72.03;45.88;;;7.00;99.90;;;;;;4997154;28;20046;-84
2022/05/02 05:50:21;;;;;;;70.05;45.15;;;7.10;99.90;;;;;;5004984;28;20050;-85
2022/05/02 05:53:16;;;;;;;76.05;44.17;;;7.20;99.90;;;;;;4988936;28;20045;-86
2022/05/02 05:56:06;;;;;;;70.75;44.45;;;7.30;99.90;;;;;;5002198;28;20128;-87
2022/05/02 05:59:02;;;;;;;63.03;42.17;;;7.50;99.90;;;;;;4999700;28;20050;-86
2022/05/02 06:02:27;;;;;;;61.63;41.77;;;7.60;99.90;;;;;;5018905;28;20060;-91
2022/05/02 06:05:15;;;;;;;55.55;37.28;;;7.70;99.90;;;;;;4991744;28;20300;-89
2022/05/02 06:08:07;;;;;;;53.53;36.63;;;7.80;99.90;;;;;;5015410;28;20489;-87
2022/05/02 06:11:05;;;;;;;52.95;36.20;;;7.90;99.90;;;;;;4994650;28;20053;-89
2022/05/02 06:13:56;;;;;;;56.35;36.67;;;8.10;99.90;;;;;;4994879;28;20065;-91
2022/05/02 06:25:27;;;;;;;43.33;30.35;;;8.70;99.90;;;;;;4871255;29;20051;-91
2022/05/02 06:29:03;;;;;;;47.53;30.63;;;9.00;99.90;;;;;;4894726;29;20048;-89
2022/05/02 06:40:13;;;;;;;35.90;25.45;;;10.20;99.90;;;;;;4957043;28;20129;-93
2022/05/02 06:44:04;;;;;;;34.70;24.27;;;10.50;99.90;;;;;;4950423;28;20047;-89
2022/05/02 06:47:35;;;;;;;;;;;10.90;99.90;;;;;;4950935;29;20070;-91
2022/05/02 06:50:59;;;;;;;;;;;;;;;;;;;;;
2022/05/02 06:59:21;;;;;;;;;;;;;;;;;;;;;
2022/05/02 07:03:28;;;;;;;;;;;;;;;;;;;;;
2022/05/02 07:07:24;;;;;;;25.73;20.42;;;13.00;99.90;;;;;;4907797;29;20060;-92
2022/05/02 07:11:20;;;;;;;26.33;20.63;;;12.90;99.90;;;;;;4904197;29;20048;-92
2022/05/02 07:14:27;;;;;;;25.73;19.73;;;13.20;99.90;;;;;;4893868;29;20048;-91
2022/05/02 07:17:27;;;;;;;26.67;20.08;;;14.00;99.90;;;;;;4951015;28;20059;-89
2022/05/02 07:20:14;;;;;;;24.83;19.48;;;14.10;99.90;;;;;;5012579;28;20045;-89
2022/05/02 07:23:23;;;;;;;22.40;18.77;;;14.50;99.90;;;;;;5014907;28;20053;-89
2022/05/02 07:26:14;;;;;;;22.08;18.88;;;15.20;99.90;;;;;;5020508;28;20050;-85
2022/05/02 07:29:05;;;;;;;22.55;17.05;;;15.60;99.90;;;;;;5010248;28;20042;-89
2022/05/02 07:31:54;;;;;;;19.48;17.05;;;16.20;99.90;;;;;;5002510;28;20050;-89
2022/05/02 07:34:48;;;;;;;22.63;17.42;;;16.30;99.90;;;;;;5007953;28;20552;-90
2022/05/02 07:37:47;;;;;;;19.60;16.55;;;16.80;99.90;;;;;;5022680;28;20046;-90
2022/05/02 07:41:22;;;;;;;18.83;16.70;;;17.00;99.90;;;;;;5002726;28;20101;-90
2022/05/02 07:44:13;;;;;;;19.63;17.10;;;17.50;99.90;;;;;;5025003;28;20053;-90
2022/05/02 07:47:06;;;;;;;20.00;16.48;;;18.20;99.30;;;;;;5014863;28;20060;-91
2022/05/02 07:49:57;;;;;;;19.75;14.55;;;18.10;99.90;;;;;;4999855;28;20041;-91
2022/05/02 07:52:49;;;;;;;18.67;15.70;;;18.50;98.70;;;;;;4994161;28;20065;-90
2022/05/02 07:55:39;;;;;;;18.92;15.73;;;18.60;98.20;;;;;;5011979;28;20109;-91
2022/05/02 07:58:28;;;;;;;16.30;14.55;;;18.80;95.50;;;;;;5022824;28;20053;-91
2022/05/02 08:01:22;;;;;;;15.30;13.48;;;18.90;96.70;;;;;;5024530;28;20045;-91
2022/05/02 08:04:14;;;;;;;15.75;12.95;;;19.10;92.90;;;;;;5015591;28;20069;-86
2022/05/02 08:07:15;;;;;;;14.32;12.80;;;19.60;91.40;;;;;;5006980;28;20038;-90
2022/05/02 08:10:33;;;;;;;15.77;12.18;;;19.70;90.20;;;;;;5024122;28;20058;-86
2022/05/02 08:13:26;;;;;;;17.08;12.13;;;19.60;89.90;;;;;;5028715;28;20046;-89
2022/05/02 08:16:18;;;;;;;14.68;12.48;;;19.70;82.70;;;;;;5034933;28;20028;-87
2022/05/02 08:19:47;;;;;;;15.75;12.90;;;19.50;84.60;;;;;;5022107;28;20069;-88
2022/05/02 08:29:40;;;;;;;16.50;13.48;;;20.10;82.00;;;;;;5020859;28;20042;-87
2022/05/02 08:32:49;;;;;;;16.67;13.35;;;20.20;69.90;;;;;;5015113;28;20033;-90
2022/05/02 08:35:55;;;;;;;16.70;12.13;;;19.90;80.80;;;;;;5012874;28;20042;-90
2022/05/02 08:39:01;;;;;;;14.30;12.20;;;21.00;73.30;;;;;;5011003;28;20046;-90
2022/05/02 08:42:19;;;;;;;14.70;11.63;;;21.20;72.30;;;;;;5013631;28;20065;-91
2022/05/02 08:45:22;;;;;;;14.40;12.38;;;21.60;70.00;;;;;;5002392;28;20037;-89
2022/05/02 08:48:44;;;;;;;16.38;12.65;;;21.80;70.40;;;;;;5001599;28;20042;-90
2022/05/02 08:52:08;;;;;;;17.35;12.07;;;21.70;68.10;;;;;;5015371;28;20133;-88
2022/05/02 08:55:08;;;;;;;18.63;12.15;;;21.80;64.10;;;;;;4998895;28;20046;-90
2022/05/02 08:58:13;;;;;;;9.85;8.43;;;20.90;71.40;;;;;;4999684;28;20043;-90
2022/05/02 09:01:26;;;;;;;12.93;8.68;;;22.30;62.90;;;;;;5015570;28;20057;-90
2022/05/02 09:04:29;;;;;;;11.95;9.77;;;22.60;54.80;;;;;;5004617;28;20397;-91
2022/05/02 09:07:46;;;;;;;10.65;9.18;;;22.40;57.10;;;;;;5004411;28;20424;-90
2022/05/02 09:10:42;;;;;;;9.77;7.95;;;22.20;57.10;;;;;;5004231;28;20045;-91
2022/05/02 09:14:27;;;;;;;8.13;6.80;;;22.30;59.60;;;;;;5019807;28;20111;-90
2022/05/02 09:17:31;;;;;;;8.77;7.32;;;22.30;55.70;;;;;;4924775;29;20066;-90
2022/05/02 09:20:24;;;;;;;10.77;8.77;;;22.00;52.30;;;;;;4933137;29;20044;-91
2022/05/02 09:23:19;;;;;;;9.27;7.72;;;22.20;57.30;;;;;;5013876;28;20122;-89
2022/05/02 09:26:11;;;;;;;9.45;7.30;;;22.30;57.20;;;;;;5005433;28;20582;-91
2022/05/02 09:29:51;;;;;;;9.70;7.47;;;22.70;55.30;;;;;;4995509;28;20056;-91
2022/05/02 09:33:03;;;;;;;8.32;7.45;;;23.70;54.60;;;;;;5009420;28;20042;-92
2022/05/02 09:36:02;;;;;;;10.32;8.23;;;21.70;52.80;;;;;;5004479;28;20053;-92
2022/05/02 09:39:11;;;;;;;10.48;8.57;;;20.30;58.70;;;;;;5004867;28;20145;-89
2022/05/02 09:42:21;;;;;;;9.40;7.47;;;19.50;62.60;;;;;;5015505;28;20105;-89
2022/05/02 09:49:36;;;;;;;7.73;6.97;;;20.80;59.90;;;;;;5030055;28;20057;-88
2022/05/02 09:53:11;;;;;;;8.20;7.03;;;21.60;53.20;;;;;;4974589;28;20069;-87
2022/05/02 09:57:04;;;;;;;;;;;;;;;;;;;;;
2022/05/02 10:03:51;;;;;;;9.27;7.22;;;22.80;53.70;;;;;;4940439;29;20051;-89
2022/05/02 10:06:49;;;;;;;8.07;6.43;;;21.80;53.20;;;;;;4904793;29;20115;-88
2022/05/02 10:10:12;;;;;;;8.02;6.32;;;21.20;56.60;;;;;;4930493;29;20063;-87
2022/05/02 10:13:24;;;;;;;10.93;7.90;;;22.50;57.30;;;;;;4917339;29;20408;-89
2022/05/02 10:16:55;;;;;;;9.73;8.27;;;22.30;54.90;;;;;;4942113;29;20106;-90
2022/05/02 10:28:15;;;;;;;10.07;8.05;;;23.40;54.20;;;;;;4968621;28;20067;-91
2022/05/02 10:31:41;;;;;;;9.30;8.40;;;23.10;52.90;;;;;;4881780;29;20353;-88
2022/05/02 10:34:46;;;;;;;10.43;9.25;;;22.50;55.50;;;;;;4875306;29;20503;-89
2022/05/02 10:37:46;;;;;;;8.65;7.60;;;22.10;54.50;;;;;;4879775;29;20053;-83
2022/05/02 10:49:06;;;;;;;9.65;7.50;;;22.40;54.60;;;;;;4812055;29;20062;-91
2022/05/02 10:52:11;;;;;;;11.77;9.63;;;21.00;56.10;;;;;;4855871;29;20067;-89
2022/05/02 10:55:11;;;;;;;9.38;8.48;;;20.80;57.00;;;;;;4894679;28;20053;-89
2022/05/02 10:58:07;;;;;;;8.48;7.55;;;20.50;59.60;;;;;;4959610;29;20039;-91
2022/05/02 11:00:56;;;;;;;9.73;6.72;;;21.80;56.70;;;;;;4951020;28;20058;-87
2022/05/02 11:04:14;;;;;;;9.75;7.05;;;22.50;51.20;;;;;;4963193;29;20048;-87
2022/05/02 11:07:12;;;;;;;8.95;7.57;;;21.50;55.10;;;;;;4948275;29;20074;-88
2022/05/02 11:10:28;;;;;;;12.02;8.07;;;21.30;52.70;;;;;;4955698;28;20410;-86
2022/05/02 11:13:46;;;;;;;10.45;8.05;;;20.10;57.80;;;;;;5006794;28;20057;-88
2022/05/02 11:16:53;;;;;;;11.13;8.88;;;19.60;58.60;;;;;;5011368;28;20054;-90
2022/05/02 11:23:31;;;;;;;7.43;6.05;;;22.00;57.50;;;;;;5016686;28;20511;-89
2022/05/02 11:26:37;;;;;;;10.52;6.28;;;24.10;52.60;;;;;;5008779;28;20050;-89
2022/05/02 11:29:53;;;;;;;5.95;5.35;;;22.60;52.00;;;;;;5010546;28;20046;-89
2022/05/02 11:32:57;;;;;;;7.07;6.32;;;21.50;53.70;;;;;;5022232;28;20152;-87
2022/05/02 11:35:51;;;;;;;6.45;5.70;;;20.50;54.90;;;;;;5024086;28;20105;-89
2022/05/02 11:39:08;;;;;;;6.82;5.05;;;19.90;55.90;;;;;;5018226;28;20065;-88
2022/05/02 11:42:03;;;;;;;6.68;5.57;;;20.30;55.70;;;;;;5011711;28;20050;-89
2022/05/02 11:45:17;;;;;;;6.57;5.07;;;20.50;54.90;;;;;;5018335;28;20051;-89
2022/05/02 11:48:12;;;;;;;6.88;5.28;;;19.90;55.50;;;;;;5012332;28;20033;-88
2022/05/02 11:51:10;;;;;;;5.75;4.88;;;19.90;57.00;;;;;;5034216;28;20049;-88
2022/05/02 11:54:10;;;;;;;6.22;4.30;;;22.00;57.20;;;;;;5021722;28;20119;-88
2022/05/02 11:57:20;;;;;;;;;;;;;;;;;;;;;
2022/05/02 12:01:15;;;;;;;;;;;;;;;;;;;;;
2022/05/02 12:08:45;;;;;;;7.43;4.93;;;23.50;49.30;;;;;;4938935;29;20047;-90
2022/05/02 12:12:32;;;;;;;6.82;6.00;;;21.90;51.50;;;;;;4940193;28;20055;-90
2022/05/02 12:16:11;;;;;;;9.15;6.25;;;20.30;54.80;;;;;;4865615;29;20081;-90
2022/05/02 12:23:44;;;;;;;6.47;5.25;;;22.40;55.90;;;;;;4943453;29;20043;-92
2022/05/02 12:26:45;;;;;;;6.38;5.18;;;24.80;50.80;;;;;;4930413;29;20058;-91
2022/05/02 12:29:45;;;;;;;7.43;4.97;;;24.00;45.20;;;;;;4940016;29;20434;-90
2022/05/02 12:41:17;;;;;;;;;;;;;;;;;;;;;
2022/05/02 12:49:04;;;;;;;12.57;7.07;;;19.80;56.20;;;;;;4894614;29;20106;-90
2022/05/02 12:53:01;;;;;;;;;;;;;;;;;;;;;
2022/05/02 12:56:33;;;;;;;;;;;;;;;;;;;;;
2022/05/02 13:00:46;;;;;;;7.07;5.72;;;19.30;57.20;;;;;;4891543;29;20047;-88
2022/05/02 13:04:01;;;;;;;10.23;4.78;;;19.60;57.20;;;;;;4922061;29;20095;-89
2022/05/02 13:07:53;;;;;;;7.38;5.68;;;20.00;55.30;;;;;;4839615;29;20083;-90
2022/05/02 13:15:58;;;;;;;;;;;;;;;;;;;;;
2022/05/02 13:24:07;;;;;;;;;;;;;;;;;;;;;
2022/05/02 13:28:02;;;;;;;;;;;;;;;;;;;;;
2022/05/02 13:40:26;;;;;;;;;;;;;;;;;;;;;
2022/05/02 13:44:26;;;;;;;;;;;;;;;;;;;;;
2022/05/02 14:04:18;;;;;;;4.10;3.73;;;20.30;57.30;;;;;;4866746;28;20054;-87
2022/05/02 14:07:24;;;;;;;6.93;4.90;;;23.40;54.50;;;;;;4999944;28;20102;-90
2022/05/02 14:11:19;;;;;;;;;;;;;;;;;;;;;
2022/05/02 14:19:04;;;;;;;;;;;;;;;;;;;;;
2022/05/02 14:21:56;;;;;;;4.32;3.47;;;20.70;53.10;;;;;;4835956;29;20135;-87
2022/05/02 14:24:46;;;;;;;5.00;3.60;;;20.40;56.80;;;;;;4953099;28;20145;-89
2022/05/02 14:27:37;;;;;;;4.97;3.72;;;20.30;57.60;;;;;;4932903;29;20401;-87
2022/05/02 14:30:26;;;;;;;4.00;3.60;;;19.80;56.20;;;;;;4947753;29;20457;-88
2022/05/02 14:33:38;;;;;;;4.32;3.92;;;19.80;56.50;;;;;;4932897;28;20465;-87
2022/05/02 14:36:29;;;;;;;3.75;3.20;;;19.60;58.80;;;;;;4950778;28;20209;-86
2022/05/02 14:39:17;;;;;;;6.75;3.72;;;19.70;58.00;;;;;;4944130;29;20059;-88
2022/05/02 14:42:06;;;;;;;6.32;4.70;;;19.40;56.80;;;;;;4950519;28;20369;-87
2022/05/02 14:44:56;;;;;;;3.88;3.47;;;19.20;57.50;;;;;;4950511;28;20063;-86
2022/05/02 14:47:49;;;;;;;5.28;4.03;;;19.20;59.10;;;;;;4951939;28;20058;-86
2022/05/02 14:50:40;;;;;;;6.47;3.90;;;19.20;58.80;;;;;;5008193;28;20132;-86
2022/05/02 14:53:39;;;;;;;6.38;3.78;;;19.10;60.00;;;;;;5008755;28;20092;-86
2022/05/02 14:56:34;;;;;;;6.90;4.00;;;18.90;58.60;;;;;;4992745;28;20046;-84
2022/05/02 14:59:34;;;;;;;5.32;3.78;;;18.90;59.10;;;;;;5005285;28;20054;-85
2022/05/02 15:02:27;;;;;;;4.20;3.47;;;18.90;59.80;;;;;;5008323;28;20136;-86
2022/05/02 15:05:18;;;;;;;3.25;2.92;;;19.10;57.70;;;;;;4992687;28;20493;-86
2022/05/02 15:08:21;;;;;;;5.25;3.63;;;19.30;56.30;;;;;;5007897;28;20038;-86
2022/05/02 15:11:52;;;;;;;5.38;3.20;;;19.20;56.40;;;;;;5015147;28;20044;-85
2022/05/02 15:15:21;;;;;;;4.93;3.03;;;19.30;58.10;;;;;;5005675;28;20046;-85
2022/05/02 15:18:35;;;;;;;5.03;2.97;;;19.50;56.80;;;;;;5004220;28;20052;-87
2022/05/02 15:21:28;;;;;;;4.03;3.03;;;19.40;56.90;;;;;;5016244;28;20061;-85
2022/05/02 15:24:42;;;;;;;4.03;3.42;;;19.50;55.90;;;;;;5017929;28;20046;-84
2022/05/02 15:36:52;;;;;;;4.38;2.92;;;20.00;56.20;;;;;;5015100;28;20045;-86
2022/05/02 15:39:42;;;;;;;5.30;3.17;;;20.30;54.40;;;;;;5015057;28;20125;-86
2022/05/02 15:42:29;;;;;;;5.75;3.17;;;20.30;53.50;;;;;;5019376;28;20135;-87
2022/05/02 15:45:21;;;;;;;3.40;3.10;;;20.40;53.90;;;;;;5017283;28;20668;-86
2022/05/02 15:48:40;;;;;;;4.97;3.13;;;20.50;51.30;;;;;;5002942;28;20057;-87
2022/05/02 15:51:28;;;;;;;2.95;2.65;;;20.50;52.30;;;;;;4999495;28;20046;-86
2022/05/02 15:54:18;;;;;;;5.35;2.88;;;20.40;53.40;;;;;;5007988;28;20042;-87
2022/05/02 15:57:12;;;;;;;3.10;2.80;;;20.60;54.10;;;;;;5015339;28;20045;-86
2022/05/02 16:00:06;;;;;;;3.15;2.80;;;20.10;53.60;;;;;;5013983;28;20136;-87
2022/05/02 16:03:14;;;;;;;3.70;3.30;;;19.70;55.20;;;;;;5014860;28;20037;-87
2022/05/02 16:06:20;;;;;;;5.97;3.60;;;19.60;57.60;;;;;;5008818;28;20038;-86
2022/05/02 16:12:17;;;;;;;5.38;3.67;;;18.90;59.80;;;;;;5006049;28;20362;-86
2022/05/02 16:15:05;;;;;;;7.75;4.80;;;18.60;60.00;;;;;;5006047;28;20061;-88
2022/05/02 16:18:01;;;;;;;4.57;3.40;;;18.70;59.30;;;;;;5013965;28;20042;-87
2022/05/02 16:20:49;;;;;;;5.93;3.63;;;18.50;60.20;;;;;;4997551;28;20077;-87
2022/05/02 16:23:37;;;;;;;4.07;3.65;;;18.40;62.30;;;;;;5000787;28;20363;-87
2022/05/02 16:26:27;;;;;;;5.82;3.35;;;18.20;61.20;;;;;;4994048;28;20147;-88
2022/05/02 16:29:17;;;;;;;3.33;2.85;;;18.20;62.70;;;;;;5011124;28;20149;-87
2022/05/02 16:32:06;;;;;;;4.75;3.45;;;18.20;59.90;;;;;;5012759;28;20049;-87
2022/05/02 16:34:57;;;;;;;6.03;3.13;;;18.10;61.60;;;;;;5012107;28;20045;-86
2022/05/02 16:38:02;;;;;;;4.65;3.83;;;18.00;63.60;;;;;;5013428;28;20046;-86
2022/05/02 16:40:55;;;;;;;4.63;4.15;;;18.00;63.40;;;;;;4992070;28;20046;-87
2022/05/02 16:43:47;;;;;;;4.25;3.60;;;17.70;64.20;;;;;;4988050;28;20046;-86
2022/05/02 16:46:34;;;;;;;6.57;3.60;;;17.60;64.50;;;;;;5013669;28;20050;-88
2022/05/02 16:49:22;;;;;;;5.50;4.30;;;17.40;64.00;;;;;;5014649;28;20109;-87
2022/05/02 16:52:10;;;;;;;3.75;3.45;;;17.30;64.90;;;;;;4995909;28;20053;-88
2022/05/02 16:55:00;;;;;;;6.13;3.58;;;17.10;64.40;;;;;;5018258;28;20042;-87
2022/05/02 16:57:47;;;;;;;5.10;3.67;;;17.00;65.60;;;;;;5010015;28;20042;-85
2022/05/02 17:00:37;;;;;;;4.45;3.42;;;16.80;67.40;;;;;;5018259;28;20065;-85
2022/05/02 17:03:31;;;;;;;4.47;3.75;;;16.70;67.50;;;;;;5016944;28;20458;-87
2022/05/02 17:06:25;;;;;;;5.75;4.28;;;16.70;68.30;;;;;;5019523;28;20046;-85
2022/05/02 17:09:16;;;;;;;3.55;3.22;;;16.60;68.30;;;;;;5010900;28;20408;-86
2022/05/02 17:12:04;;;;;;;4.43;3.67;;;16.50;69.20;;;;;;4999586;28;20820;-86
2022/05/02 17:14:53;;;;;;;3.70;3.38;;;16.50;70.70;;;;;;5008462;28;20092;-86
2022/05/02 17:17:44;;;;;;;6.45;3.95;;;16.50;70.40;;;;;;5009270;28;20051;-86
2022/05/02 17:20:39;;;;;;;5.90;3.65;;;16.50;71.10;;;;;;5012265;28;20449;-86
2022/05/02 17:23:36;;;;;;;4.18;3.63;;;16.50;72.10;;;;;;5010090;28;20104;-85
2022/05/02 17:26:24;;;;;;;7.18;4.15;;;16.50;71.40;;;;;;5003371;28;20328;-84
2022/05/02 17:29:12;;;;;;;5.63;4.50;;;16.60;71.30;;;;;;5011260;28;20042;-86
2022/05/02 17:32:07;;;;;;;5.53;4.20;;;16.60;72.20;;;;;;4998209;28;20097;-87
2022/05/02 17:34:58;;;;;;;5.00;4.50;;;16.70;72.60;;;;;;4992703;28;20053;-85
2022/05/02 17:38:04;;;;;;;7.22;4.97;;;16.60;72.90;;;;;;5007033;28;20050;-86
2022/05/02 17:40:53;;;;;;;6.68;5.00;;;16.50;73.90;;;;;;4999358;28;20053;-86
2022/05/02 17:44:00;;;;;;;5.88;4.80;;;16.40;75.70;;;;;;5001919;28;20054;-87
2022/05/02 17:46:54;;;;;;;8.82;4.90;;;16.20;77.10;;;;;;4990769;28;20447;-87
2022/05/02 17:49:56;;;;;;;6.82;5.43;;;16.20;79.20;;;;;;5011386;28;20050;-86
2022/05/02 17:52:44;;;;;;;6.17;5.57;;;16.00;80.10;;;;;;5012488;28;20050;-87
2022/05/02 17:55:37;;;;;;;6.43;5.07;;;15.90;81.80;;;;;;5000974;28;20293;-87
2022/05/02 17:58:27;;;;;;;6.22;5.25;;;15.80;82.20;;;;;;5012130;28;20050;-86
2022/05/02 18:01:16;;;;;;;9.23;5.75;;;15.70;83.10;;;;;;4999165;28;20060;-86
2022/05/02 18:04:15;;;;;;;12.23;5.78;;;15.60;84.60;;;;;;5010730;28;20057;-87
2022/05/02 18:07:12;;;;;;;9.27;6.13;;;15.40;86.50;;;;;;4982000;28;20042;-86
2022/05/02 18:10:00;;;;;;;8.23;5.55;;;15.30;88.70;;;;;;5002264;28;20498;-87
2022/05/02 18:21:39;;;;;;;6.18;5.03;;;14.90;92.70;;;;;;5016226;28;20026;-87
2022/05/02 18:25:30;;;;;;;8.38;5.47;;;14.70;94.70;;;;;;4928937;29;20162;-85
2022/05/02 18:28:36;;;;;;;6.30;5.53;;;14.60;95.50;;;;;;4991385;28;20057;-85
2022/05/02 18:31:42;;;;;;;7.70;5.55;;;14.50;96.60;;;;;;5012143;28;20052;-86
2022/05/02 18:38:10;;;;;;;7.03;5.63;;;14.40;99.40;;;;;;5009291;28;20116;-87
2022/05/02 18:40:59;;;;;;;6.47;5.13;;;14.30;99.90;;;;;;5007216;28;20038;-86
2022/05/02 18:43:49;;;;;;;6.78;5.50;;;14.30;99.90;;;;;;4991140;28;20323;-87
2022/05/02 18:53:22;;;;;;;9.75;6.10;;;14.10;99.90;;;;;;5004732;28;20096;-86
2022/05/02 18:56:10;;;;;;;7.13;5.33;;;14.00;99.90;;;;;;5004716;28;20191;-87